Göttingen, Allemagne

14:48 CEST le 02 septembre 2015 (GMT +0200)
göttingen,de | | Change Station
CLOSE
Current Station
Stations météorologiques personnelles
Location: Göttingen, NIEDERSACHSEN
Altitude: 741 ft
Stations météo à proximité

Alt. 741 ft 51.53 °N, 9.86 °E | Updated 21 seconds ago

Mostly Cloudy
Nuageux
65.1 ° F
Paraît 65.1 ° F
N
0.9
Vent Variable Vent de ESE
Gusts 2.5 mph

Aujourd'hui
Haut(e) -- | Bas -- ° F
--% Risque de précip.
Hier
Haut(e) -- | Bas -- ° F
Precip. -- pouce
6:33 AM 8:05 PM
Lune gibbeuse décroissante, 80% visible
Pression 30.01 pouce
Visibilité 6.2 Miles terrestres
Nuages Peu 3500 ft
Nuageux 4300 ft
Point de rosée 50 ° F
Humidité 58%
Précipitations 0.00 pouce
Profondeur de la couche neigeuse Non disponible.
UV 0.0 sur 12
Pollen Non disponible.
Qualité de l'air Non disponible.
Flu Activity Non disponible.
METAR EDVK 021220Z VRB03KT 9999 FEW035 BKN043 17/10 Q1016 RMK ATIS R
Pression 30.01 pouce
Visibilité 6.2 Miles terrestres
Nuages Peu 3500 ft
Nuageux 4300 ft
Point de rosée 50 ° F
Humidité 58%
Précipitations 0.00 pouce
Profondeur de la couche neigeuse Non disponible.
UV 0.0 sur 12
Pollen Non disponible.
Qualité de l'air Non disponible.
Flu Activity Non disponible.
METAR EDVK 021220Z VRB03KT 9999 FEW035 BKN043 17/10 Q1016 RMK ATIS R

10-Day Weather Forecast

×

Almanac

Astronomie

Sep. 02, 2015 Lever Coucher
Temps réel
Crépuscule civil
Crépuscule nautique
Crépuscule astronomique
Lune
Durée de lumière visible
Longueur du jour
Tomorrow will be .
, % of the Moon is Illuminated

Extrêmes aujourd'hui

Country Highs Country Lows

Community

WunderPhotos

Upload Photos

1,851,738 Photos téléchargées !

WunderBlogs® & News

Nearby

Qualité de l'air

  Qualité de l'air Indice de la qualité de l'air Polluant
Not available.

Épaisseur de neige

Station Depth Altitude

Activité sismique

Ville Distance Mag. Time & Date
Minimum magnitude displayed is 2.5.

Températures des eaux côtières

Lieu Température

Stations

Stations météo à proximité

Emplacement de la station Température Refroidissement éolien Point de rosée Humidité Vent Precip. Alt. Mise à jour Type